ADDS METAR Data INFO
IDs: Format: Raw Decoded Include TAF

Data at: 1505 UTC 23 Oct 2017

KCMH 231451Z 13009KT 6SM RA BKN048 BKN075 OVC090 18/15 A2986 RMK AO2 RAB06 SLP107 P0002 60002 T01780150 58024
KCMH 231351Z 13009G19KT 10SM BKN070 BKN100 OVC180 19/13 A2989 RMK AO2 SLP117 T01890133
KCMH 231251Z 12011KT 10SM FEW070 OVC180 18/12 A2991 RMK AO2 SLP124 T01780122
KCMH 231151Z 12008KT 10SM SCT070 OVC180 18/12 A2993 RMK AO2 SLP131 T01780117 10183 20172 56023
KCMH 231051Z 13010KT 10SM OVC070 18/11 A2995 RMK AO2 SLP137 T01780111
KCMH 230951Z 13008KT 10SM SCT065 OVC140 18/11 A2997 RMK AO2 SLP143 T01780111
KCMH 230851Z 14007KT 10SM OVC065 18/11 A3000 RMK AO2 SLP153 T01830106 58016
KCMH 230751Z 13008KT 10SM OVC160 18/11 A3002 RMK AO2 SLP159 T01780111
KCMH 230651Z 13009KT 10SM BKN180 BKN250 18/11 A3004 RMK AO2 SLP166 T01780106
KCMH 230551Z 13010KT 10SM OVC180 18/11 A3005 RMK AO2 SLP170 T01830106 10200 20178 56016
KCMH 230451Z 13006KT 10SM BKN150 OVC250 18/11 A3005 RMK AO2 SLP172 T01830106 402560111
KCMH 230351Z 14004KT 10SM FEW150 OVC250 18/11 A3007 RMK AO2 SLP180 T01830106
KCMH 230251Z 14006KT 10SM FEW150 OVC250 18/11 A3010 RMK AO2 SLP187 T01780111 58009
KCMH 230151Z 17004KT 10SM FEW150 OVC250 18/12 A3011 RMK AO2 SLP194 T01830117
KCMH 230051Z 12005KT 10SM OVC250 18/12 A3012 RMK AO2 SLP196 T01830117
KCMH 222351Z 14003KT 10SM FEW150 OVC250 19/11 A3012 RMK AO2 SLP199 T01940111 10256 20194 58002
KCMH 222251Z 16003KT 10SM FEW150 OVC250 22/11 A3012 RMK AO2 SLP199 T02170106
KCMH 222151Z 16006KT 10SM FEW150 OVC250 23/10 A3013 RMK AO2 SLP201 T02330100
KCMH 222051Z 18008KT 10SM BKN250 24/11 A3013 RMK AO2 SLP200 T02390106 56018
KCMH 221951Z 18011KT 10SM BKN250 24/11 A3013 RMK AO2 SLP201 T02440106
KCMH 221851Z 19012G19KT 10SM BKN250 25/12 A3015 RMK AO2 SLP204 T02500117
KCMH 221751Z 17011KT 10SM BKN250 24/12 A3019 RMK AO2 SLP218 T02440117 10244 20122 58018
KCMH 221651Z 19012KT 10SM SCT250 24/12 A3021 RMK AO2 SLP227 T02390117
KCMH 221551Z 19009KT 10SM BKN250 23/12 A3023 RMK AO2 SLP233 T02280117
KCMH 221451Z 16009KT 10SM BKN250 21/12 A3024 RMK AO2 SLP236 T02060117 50005
KCMH 221351Z 15006KT 10SM BKN250 17/11 A3025 RMK AO2 SLP241 T01670111
KCMH 221251Z 13004KT 10SM BKN250 14/11 A3024 RMK AO2 SLP237 T01390111
KCMH 221151Z 12004KT 10SM FEW200 12/10 A3022 RMK AO2 SLP232 T01220100 10161 20111 50005
KCMH 221051Z 12003KT 10SM SCT200 12/10 A3022 RMK AO2 SLP233 T01170100
KCMH 220951Z 12003KT 10SM SCT220 14/11 A3022 RMK AO2 SLP229 T01390106
KCMH 220851Z 10005KT 10SM BKN250 14/11 A3021 RMK AO2 SLP226 T01390106 51004
KCMH 220751Z 00000KT 10SM BKN250 13/11 A3021 RMK AO2 SLP225 T01330106
KCMH 220651Z 00000KT 10SM BKN250 15/11 A3021 RMK AO2 SLP226 T01500106
KCMH 220551Z 13004KT 10SM BKN250 16/11 A3020 RMK AO2 SLP221 T01610106 10194 20156 58009
KCMH 220451Z 14003KT 10SM BKN220 BKN250 17/11 A3020 RMK AO2 SLP223 T01720106 402390083
KCMH 220351Z 14005KT 10SM BKN220 BKN250 18/11 A3022 RMK AO2 SLP230 T01780106